CheckWX is a tool to help pilots better visualize weather data.  It is not intended as a substitute for an official pre-flight weather briefing.

06:33:46 UTC

ESMS METAR
Malmö Sturup Airport
Malmö, Sweden
Current

14 mins ago

ESMS 220620Z 11011KT CAVOK 09/01 Q1022
Observed
Apr-22 @ 06:20 UTC
Wind
  • 110° at 11 KTS
Visibility
10,000+ meters
Flight Rules
VFR
Cloud Levels
  • Clear skies
Temperature
C / 48°F
Dewpoint
C / 34°F
Humidity
58%
Altimeter
30.18" Hg
Pressure
1021.92 hPa
Previous

44 mins ago

ESMS 220550Z 11010KT CAVOK 09/01 Q1022
Observed
Apr-22 @ 05:50 UTC
Wind
  • 110° at 10 KTS
Visibility
10,000+ meters
Flight Rules
VFR
Cloud Levels
  • Clear skies
Temperature
C / 48°F
Dewpoint
C / 34°F
Humidity
58%
Altimeter
30.18" Hg
Pressure
1021.92 hPa
Previous

1 hour ago

ESMS 220520Z 11010KT CAVOK 08/01 Q1021
Observed
Apr-22 @ 05:20 UTC
Wind
  • 110° at 10 KTS
Visibility
10,000+ meters
Flight Rules
VFR
Cloud Levels
  • Clear skies
Temperature
C / 46°F
Dewpoint
C / 34°F
Humidity
62%
Altimeter
30.15" Hg
Pressure
1020.92 hPa